Terminal Aerodrome Forecast
Issued by NWS Brownsville, TX

Home | Current Version | Previous Version | Text Only | Print | Product List | Glossary On
Versions: 1 2 3 4 5 6 7 8 9 10 11 12 13 14 15 16
653
FTUS44 KBRO 300537
TAFHRL
TAF
KHRL 300537Z 3006/3106 15007KT P6SM SKC
     FM300800 14005KT P6SM SKC
     FM301400 13010KT P6SM SCT040
     FM301800 15012G20KT P6SM VCTS SCT040CB BKN060
     FM302000 15015G25KT P6SM SCT040
     FM302300 13009KT P6SM SCT250=

USA.gov is the U.S. government's official web portal to all federal, state and local government web resources and services.